createdAt,value
2022-10-25T00:00:39.996Z,101177.94
2022-10-25T00:03:10.486Z,101179.72
2022-10-25T00:05:38.804Z,101183.16
2022-10-25T00:08:06.399Z,101184.97
2022-10-25T00:10:33.583Z,101179.84
2022-10-25T00:12:59.968Z,101178.06
2022-10-25T00:15:26.363Z,101180.69
2022-10-25T00:17:53.003Z,101179.00
2022-10-25T00:20:20.387Z,101176.38
2022-10-25T00:22:46.893Z,101184.22
2022-10-25T00:25:13.447Z,101190.31
2022-10-25T00:27:39.852Z,101194.66
2022-10-25T00:30:07.251Z,101195.63
2022-10-25T00:32:34.628Z,101201.69
2022-10-25T00:35:01.073Z,101212.25
2022-10-25T00:37:27.453Z,101203.47
2022-10-25T00:39:53.792Z,101209.63
2022-10-25T00:42:26.300Z,101203.59
2022-10-25T00:45:04.555Z,101200.97
2022-10-25T00:47:37.563Z,101202.63
2022-10-25T00:50:13.407Z,101204.41
2022-10-25T00:52:42.790Z,101220.09
2022-10-25T00:55:11.327Z,101212.25
2022-10-25T00:57:43.698Z,101208.81
2022-10-25T01:00:11.000Z,101212.25
2022-10-25T01:02:37.422Z,101210.47
2022-10-25T01:05:04.707Z,101208.09
2022-10-25T01:07:31.033Z,101208.91
2022-10-25T01:09:57.947Z,101205.34
2022-10-25T01:12:24.343Z,101213.31
2022-10-25T01:14:52.664Z,101211.63
2022-10-25T01:17:41.275Z,101221.97
2022-10-25T01:20:32.202Z,101218.53
2022-10-25T01:23:36.442Z,101215.91
2022-10-25T01:26:21.650Z,101216.03
2022-10-25T01:29:08.023Z,101222.06
2022-10-25T01:31:45.434Z,101225.66
2022-10-25T01:34:23.729Z,101230.03
2022-10-25T01:37:06.075Z,101224.81
2022-10-25T01:39:39.628Z,101225.66
2022-10-25T01:42:23.855Z,101230.03
2022-10-25T01:45:04.338Z,101234.44
2022-10-25T01:47:49.165Z,101233.59
2022-10-25T01:50:29.668Z,101238.81
2022-10-25T01:52:56.066Z,101233.59
2022-10-25T01:55:31.288Z,101238.81
2022-10-25T01:58:15.538Z,101236.22
2022-10-25T02:01:08.669Z,101232.84
2022-10-25T02:03:47.512Z,101233.72
2022-10-25T02:06:25.639Z,101238.06
2022-10-25T02:09:02.197Z,101240.66
2022-10-25T02:11:33.003Z,101241.56
2022-10-25T02:14:22.027Z,101237.16
2022-10-25T02:17:13.366Z,101245.00
2022-10-25T02:19:47.862Z,101241.63
2022-10-25T02:22:15.576Z,101238.06
2022-10-25T02:24:45.616Z,101248.50
2022-10-25T02:27:13.688Z,101238.16
2022-10-25T02:29:41.401Z,101247.69
2022-10-25T02:32:08.276Z,101250.28
2022-10-25T02:34:34.686Z,101245.91
2022-10-25T02:37:01.031Z,101241.63
2022-10-25T02:39:31.326Z,101251.22
2022-10-25T02:41:58.415Z,101256.44
2022-10-25T02:44:24.720Z,101258.25
2022-10-25T02:46:51.059Z,101258.25
2022-10-25T02:49:17.368Z,101261.69
2022-10-25T02:51:43.728Z,101263.47
2022-10-25T02:54:10.071Z,101264.28
2022-10-25T02:56:37.212Z,101261.78
2022-10-25T02:59:03.640Z,101261.78
2022-10-25T03:01:30.384Z,101267.00
2022-10-25T03:03:56.751Z,101270.56
2022-10-25T03:06:23.174Z,101265.34
2022-10-25T03:08:49.481Z,101271.41
2022-10-25T03:11:16.831Z,101270.69
2022-10-25T03:13:43.180Z,101261.09
2022-10-25T03:16:09.787Z,101275.91
2022-10-25T03:18:36.272Z,101281.97
2022-10-25T03:21:03.811Z,101285.41
2022-10-25T03:23:30.728Z,101294.19
2022-10-25T03:25:58.899Z,101300.25
2022-10-25T03:28:27.405Z,101288.97
2022-10-25T03:30:54.735Z,101297.66
2022-10-25T03:33:21.199Z,101300.38
2022-10-25T03:35:51.777Z,101301.19
2022-10-25T03:38:18.586Z,101307.25
2022-10-25T03:40:45.480Z,101309.97
2022-10-25T03:43:12.207Z,101318.66
2022-10-25T03:45:38.561Z,101317.78
2022-10-25T03:48:05.289Z,101322.19
2022-10-25T03:50:31.610Z,101315.19
2022-10-25T03:52:58.012Z,101325.63
2022-10-25T03:55:24.370Z,101319.59
2022-10-25T03:57:50.669Z,101311.75
2022-10-25T04:00:17.135Z,101317.09
2022-10-25T04:02:43.485Z,101324.00
2022-10-25T04:05:09.973Z,101325.75
2022-10-25T04:07:36.339Z,101334.44
2022-10-25T04:10:03.012Z,101338.91
2022-10-25T04:12:29.426Z,101341.53
2022-10-25T04:14:55.793Z,101350.22
2022-10-25T04:17:22.188Z,101350.22
2022-10-25T04:19:48.488Z,101347.69
2022-10-25T04:22:14.875Z,101345.94
2022-10-25T04:24:41.200Z,101349.34
2022-10-25T04:27:07.503Z,101356.38
2022-10-25T04:29:33.970Z,101359.91
2022-10-25T04:32:00.351Z,101358.13
2022-10-25T04:34:26.737Z,101365.13
2022-10-25T04:36:53.077Z,101359.91
2022-10-25T04:39:19.455Z,101370.34
2022-10-25T04:41:45.765Z,101366.94
2022-10-25T04:44:12.081Z,101365.13
2022-10-25T04:46:38.415Z,101359.19
2022-10-25T04:49:04.738Z,101362.63
2022-10-25T04:51:31.088Z,101359.19
2022-10-25T04:53:57.538Z,101360.03
2022-10-25T04:56:23.898Z,101367.84
2022-10-25T04:58:50.280Z,101374.00
2022-10-25T05:01:18.080Z,101378.41
2022-10-25T05:03:44.705Z,101381.84
2022-10-25T05:06:18.505Z,101380.19
2022-10-25T05:08:49.145Z,101381.97
2022-10-25T05:11:17.287Z,101382.81
2022-10-25T05:13:45.111Z,101395.00
2022-10-25T05:16:20.400Z,101392.41
2022-10-25T05:18:47.201Z,101397.63
2022-10-25T05:21:15.610Z,101390.75
2022-10-25T05:23:42.250Z,101391.59
2022-10-25T05:26:11.887Z,101395.13
2022-10-25T05:28:39.593Z,101402.97
2022-10-25T05:31:07.785Z,101402.97
2022-10-25T05:33:34.595Z,101403.81
2022-10-25T05:36:02.221Z,101408.19
2022-10-25T05:38:31.096Z,101405.56
2022-10-25T05:41:00.650Z,101408.28
2022-10-25T05:43:27.517Z,101404.84
2022-10-25T05:46:03.336Z,101413.50
2022-10-25T05:48:29.648Z,101416.22
2022-10-25T05:51:28.789Z,101405.78
2022-10-25T05:54:00.003Z,101411.84
2022-10-25T05:56:28.625Z,101406.72
2022-10-25T05:58:58.388Z,101418.84
2022-10-25T06:01:26.607Z,101424.06
2022-10-25T06:03:55.365Z,101418.03
2022-10-25T06:06:22.577Z,101432.81
2022-10-25T06:08:48.993Z,101432.81
2022-10-25T06:11:19.599Z,101437.22
2022-10-25T06:13:46.556Z,101432.00
2022-10-25T06:16:15.875Z,101439.00
2022-10-25T06:18:43.001Z,101442.44
2022-10-25T06:21:11.581Z,101448.59
2022-10-25T06:23:38.824Z,101459.03
2022-10-25T06:26:14.473Z,101458.22
2022-10-25T06:28:40.914Z,101462.50
2022-10-25T06:31:14.145Z,101459.03
2022-10-25T06:33:40.858Z,101472.97
2022-10-25T06:36:12.853Z,101464.28
2022-10-25T06:38:39.740Z,101469.50
2022-10-25T06:41:09.876Z,101483.41
2022-10-25T06:43:36.202Z,101483.41
2022-10-25T06:46:06.679Z,101479.09
2022-10-25T06:48:33.045Z,101482.66
2022-10-25T06:51:03.179Z,101494.78
2022-10-25T06:53:29.699Z,101491.25
2022-10-25T06:56:04.461Z,101494.78
2022-10-25T06:58:33.133Z,101489.56
2022-10-25T07:01:05.066Z,101489.44
2022-10-25T07:03:35.214Z,101497.28
2022-10-25T07:06:16.070Z,101494.66
2022-10-25T07:08:45.163Z,101498.22
2022-10-25T07:11:15.211Z,101501.56
2022-10-25T07:13:41.888Z,101498.97
2022-10-25T07:16:10.383Z,101505.00
2022-10-25T07:18:37.296Z,101499.78
2022-10-25T07:21:10.183Z,101505.84
2022-10-25T07:23:41.930Z,101511.91
2022-10-25T07:26:28.222Z,101520.69
2022-10-25T07:28:56.578Z,101521.50
2022-10-25T07:31:25.203Z,101527.59
2022-10-25T07:33:53.139Z,101533.72
2022-10-25T07:36:20.441Z,101524.13
2022-10-25T07:38:47.053Z,101532.81
2022-10-25T07:41:13.472Z,101534.56
2022-10-25T07:43:39.926Z,101534.56
2022-10-25T07:46:07.032Z,101522.34
2022-10-25T07:48:33.934Z,101536.34
2022-10-25T07:51:06.128Z,101533.63
2022-10-25T07:53:32.549Z,101539.69
2022-10-25T07:55:59.000Z,101540.63
2022-10-25T07:58:25.378Z,101540.53
2022-10-25T08:00:51.726Z,101549.28
2022-10-25T08:03:18.541Z,101555.38
2022-10-25T08:05:48.267Z,101554.50
2022-10-25T08:08:15.230Z,101555.44
2022-10-25T08:10:43.286Z,101562.34
2022-10-25T08:13:10.104Z,101562.44
2022-10-25T08:15:36.659Z,101563.22
2022-10-25T08:18:04.051Z,101563.28
2022-10-25T08:20:49.661Z,101559.75
2022-10-25T08:23:17.158Z,101566.66
2022-10-25T08:25:43.511Z,101564.97
2022-10-25T08:28:10.064Z,101565.81
2022-10-25T08:30:36.572Z,101571.88
2022-10-25T08:33:03.434Z,101568.44
2022-10-25T08:35:29.761Z,101567.56
2022-10-25T08:37:56.159Z,101575.31
2022-10-25T08:40:38.908Z,101577.91
2022-10-25T08:43:23.938Z,101573.56
2022-10-25T08:46:04.718Z,101579.59
2022-10-25T08:48:36.527Z,101579.59
2022-10-25T08:51:14.275Z,101590.03
2022-10-25T08:53:48.413Z,101587.53
2022-10-25T08:56:18.354Z,101598.81
2022-10-25T08:58:53.831Z,101604.03
2022-10-25T09:01:40.451Z,101596.19
2022-10-25T09:04:06.924Z,101606.63
2022-10-25T09:06:43.512Z,101605.00
2022-10-25T09:09:25.672Z,101617.09
2022-10-25T09:12:05.367Z,101611.84
2022-10-25T09:14:47.984Z,101616.16
2022-10-25T09:17:30.513Z,101616.16
2022-10-25T09:20:06.835Z,101624.00
2022-10-25T09:23:13.227Z,101630.91
2022-10-25T09:26:00.956Z,101619.59
2022-10-25T09:28:42.363Z,101623.88
2022-10-25T09:31:14.350Z,101620.44
2022-10-25T09:33:45.568Z,101624.00
2022-10-25T09:36:13.895Z,101629.94
2022-10-25T09:38:58.388Z,101628.28
2022-10-25T09:41:34.015Z,101630.03
2022-10-25T09:44:10.687Z,101631.72
2022-10-25T09:46:43.451Z,101629.94
2022-10-25T09:49:34.926Z,101642.16
2022-10-25T09:52:18.071Z,101638.63
2022-10-25T09:55:04.594Z,101634.34
2022-10-25T09:57:30.943Z,101641.25
2022-10-25T09:59:57.380Z,101648.22
2022-10-25T10:02:26.854Z,101646.66
2022-10-25T10:04:53.971Z,101645.69
2022-10-25T10:07:32.806Z,101652.00
2022-10-25T10:10:03.001Z,101659.81
2022-10-25T10:12:39.412Z,101652.81
2022-10-25T10:15:15.609Z,101657.94
2022-10-25T10:17:41.936Z,101653.66
2022-10-25T10:20:10.880Z,101650.19
2022-10-25T10:25:24.112Z,101662.44
2022-10-25T10:27:53.313Z,101659.72
2022-10-25T10:30:25.910Z,101660.66
2022-10-25T10:32:57.116Z,101660.66
2022-10-25T10:35:36.836Z,101659.72
2022-10-25T10:38:23.324Z,101663.97
2022-10-25T10:40:52.578Z,101659.63
2022-10-25T10:43:23.952Z,101669.00
2022-10-25T10:45:51.862Z,101677.69
2022-10-25T10:48:24.190Z,101675.09
2022-10-25T10:50:52.077Z,101676.72
2022-10-25T10:53:29.268Z,101671.50
2022-10-25T10:55:58.016Z,101679.34
2022-10-25T10:58:28.016Z,101665.47
2022-10-25T11:01:00.700Z,101678.53
2022-10-25T11:03:42.474Z,101675.91
2022-10-25T11:06:15.409Z,101683.75
2022-10-25T11:08:43.956Z,101684.88
2022-10-25T11:11:21.841Z,101684.34
2022-10-25T11:13:58.840Z,101679.25
2022-10-25T11:16:27.303Z,101689.47
2022-10-25T11:19:13.261Z,101688.56
2022-10-25T11:21:45.660Z,101688.44
2022-10-25T11:24:18.003Z,101686.56
2022-10-25T11:26:48.824Z,101693.47
2022-10-25T11:29:50.383Z,101694.28
2022-10-25T11:32:16.641Z,101695.00
2022-10-25T11:35:05.803Z,101694.84
2022-10-25T11:37:42.364Z,101690.34
2022-10-25T11:40:18.709Z,101693.69
2022-10-25T11:43:06.568Z,101690.88
2022-10-25T11:45:44.222Z,101698.66
2022-10-25T11:48:16.297Z,101695.84
2022-10-25T11:51:22.839Z,101694.97
2022-10-25T11:54:12.033Z,101688.00
2022-10-25T11:57:02.508Z,101693.13
2022-10-25T11:59:51.859Z,101684.31
2022-10-25T12:02:55.434Z,101683.50
2022-10-25T12:05:27.856Z,101691.34
2022-10-25T12:08:29.000Z,101706.09
2022-10-25T12:11:04.813Z,101687.91
2022-10-25T12:13:36.279Z,101689.53
2022-10-25T12:16:09.378Z,101688.81
2022-10-25T12:18:40.319Z,101681.00
2022-10-25T12:21:09.443Z,101691.34
2022-10-25T12:23:55.592Z,101693.13
2022-10-25T12:26:31.452Z,101692.25
2022-10-25T12:29:00.710Z,101687.03
2022-10-25T12:31:31.259Z,101693.13
2022-10-25T12:34:03.652Z,101696.66
2022-10-25T12:37:00.259Z,101688.00
2022-10-25T12:39:40.857Z,101692.25
2022-10-25T12:42:28.028Z,101687.91
2022-10-25T12:45:25.222Z,101694.88
2022-10-25T12:48:14.169Z,101682.66
2022-10-25T12:50:48.642Z,101679.19
2022-10-25T12:53:55.496Z,101680.06
2022-10-25T12:56:39.887Z,101678.28
2022-10-25T12:59:40.803Z,101673.81
2022-10-25T13:02:07.036Z,101683.28
2022-10-25T13:04:57.579Z,101688.50
2022-10-25T13:07:24.478Z,101695.44
2022-10-25T13:09:51.613Z,101694.59
2022-10-25T13:12:30.516Z,101679.97
2022-10-25T13:14:58.792Z,101685.91
2022-10-25T13:17:40.215Z,101692.09
2022-10-25T13:22:50.015Z,101692.09
2022-10-25T13:25:48.390Z,101694.78
2022-10-25T13:28:14.647Z,101689.53
2022-10-25T13:30:41.731Z,101698.34
2022-10-25T13:33:22.586Z,101698.34
2022-10-25T13:35:49.130Z,101692.38
2022-10-25T13:38:22.702Z,101698.56
2022-10-25T13:41:05.235Z,101696.88
2022-10-25T13:43:31.942Z,101697.78
2022-10-25T13:45:58.320Z,101692.53
2022-10-25T13:48:35.731Z,101690.88
2022-10-25T13:51:16.669Z,101681.28
2022-10-25T13:53:47.047Z,101693.50
2022-10-25T13:56:22.531Z,101688.28
2022-10-25T13:58:51.168Z,101690.81
2022-10-25T14:01:17.754Z,101685.59
2022-10-25T14:03:50.658Z,101693.31
2022-10-25T14:06:30.763Z,101683.72
2022-10-25T14:09:08.757Z,101679.31
2022-10-25T14:11:47.286Z,101683.72
2022-10-25T14:14:21.828Z,101681.19
2022-10-25T14:16:58.187Z,101688.09
2022-10-25T14:19:37.732Z,101689.84
2022-10-25T14:22:06.829Z,101689.94
2022-10-25T14:24:33.733Z,101688.09
2022-10-25T14:27:01.274Z,101680.16
2022-10-25T14:29:29.610Z,101675.03
2022-10-25T14:31:56.843Z,101676.69
2022-10-25T14:34:25.679Z,101677.66
2022-10-25T14:36:54.416Z,101677.66
2022-10-25T14:39:23.998Z,101675.16
2022-10-25T14:41:59.477Z,101673.34
2022-10-25T14:44:31.924Z,101669.03
2022-10-25T14:46:59.993Z,101666.41
2022-10-25T14:49:27.450Z,101669.03
2022-10-25T14:51:59.439Z,101667.31
2022-10-25T14:54:30.010Z,101663.81
2022-10-25T14:56:59.315Z,101660.19
2022-10-25T14:59:49.341Z,101653.94
2022-10-25T15:02:25.990Z,101653.06
2022-10-25T15:04:55.748Z,101663.34
2022-10-25T15:07:35.960Z,101659.47
2022-10-25T15:10:07.248Z,101660.94
2022-10-25T15:12:34.702Z,101660.13
2022-10-25T15:15:25.874Z,101648.63
2022-10-25T15:17:53.134Z,101659.06
2022-10-25T15:20:19.838Z,101644.44
2022-10-25T15:22:49.155Z,101650.59
2022-10-25T15:25:21.477Z,101648.19
2022-10-25T15:27:49.524Z,101655.41
2022-10-25T15:30:33.944Z,101643.28
2022-10-25T15:33:00.260Z,101638.16
2022-10-25T15:35:27.578Z,101651.31
2022-10-25T15:37:55.855Z,101651.31
2022-10-25T15:40:22.564Z,101647.03
2022-10-25T15:42:49.033Z,101647.97
2022-10-25T15:45:15.708Z,101649.03
2022-10-25T15:47:42.521Z,101661.19
2022-10-25T15:50:18.876Z,101649.91
2022-10-25T15:52:46.049Z,101647.41
2022-10-25T15:55:21.177Z,101651.78
2022-10-25T15:57:48.584Z,101659.63
2022-10-25T16:00:16.833Z,101645.84
2022-10-25T16:02:43.816Z,101645.00
2022-10-25T16:05:25.705Z,101644.06
2022-10-25T16:07:52.664Z,101629.44
2022-10-25T16:10:20.908Z,101634.66
2022-10-25T16:12:55.813Z,101635.69
2022-10-25T16:15:26.117Z,101635.91
2022-10-25T16:17:52.554Z,101639.56
2022-10-25T16:20:28.852Z,101627.53
2022-10-25T16:22:55.978Z,101636.94
2022-10-25T16:25:27.919Z,101629.00
2022-10-25T16:27:58.369Z,101637.75
2022-10-25T16:30:26.485Z,101636.00
2022-10-25T16:32:53.008Z,101645.59
2022-10-25T16:35:24.252Z,101643.00
2022-10-25T16:37:51.615Z,101637.75
2022-10-25T16:40:20.620Z,101645.50
2022-10-25T16:42:47.817Z,101647.19
2022-10-25T16:45:25.974Z,101645.50
2022-10-25T16:47:55.706Z,101645.50
2022-10-25T16:50:23.690Z,101661.28
2022-10-25T16:52:51.348Z,101660.44
2022-10-25T16:55:18.215Z,101658.75
2022-10-25T16:57:44.709Z,101658.88
2022-10-25T17:00:12.257Z,101663.16
2022-10-25T17:02:38.915Z,101662.13
2022-10-25T17:05:17.516Z,101648.97
2022-10-25T17:07:45.510Z,101645.41
2022-10-25T17:10:14.180Z,101651.38
2022-10-25T17:12:49.467Z,101650.44
2022-10-25T17:15:16.538Z,101648.66
2022-10-25T17:17:45.425Z,101646.03
2022-10-25T17:20:14.776Z,101642.59
2022-10-25T17:22:41.897Z,101639.13
2022-10-25T17:25:09.583Z,101637.50
2022-10-25T17:27:39.329Z,101643.53
2022-10-25T17:30:07.545Z,101639.25
2022-10-25T17:32:34.038Z,101646.16
2022-10-25T17:35:01.207Z,101640.09
2022-10-25T17:37:28.098Z,101645.31
2022-10-25T17:39:54.403Z,101635.69
2022-10-25T17:42:20.735Z,101640.09
2022-10-25T17:44:47.776Z,101637.38
2022-10-25T17:47:14.871Z,101640.94
2022-10-25T17:49:41.341Z,101637.38
2022-10-25T17:52:08.155Z,101642.50
2022-10-25T17:54:34.599Z,101638.00
2022-10-25T17:57:02.785Z,101639.59
2022-10-25T17:59:29.110Z,101645.63
2022-10-25T18:01:56.452Z,101644.63
2022-10-25T18:04:23.626Z,101648.06
2022-10-25T18:06:50.413Z,101635.84
2022-10-25T18:09:17.228Z,101636.59
2022-10-25T18:11:44.418Z,101638.38
2022-10-25T18:14:10.715Z,101640.88
2022-10-25T18:16:37.699Z,101652.97
2022-10-25T18:19:05.709Z,101643.38
2022-10-25T18:21:33.330Z,101651.00
2022-10-25T18:24:02.081Z,101654.44
2022-10-25T18:26:28.676Z,101651.00
2022-10-25T18:28:57.182Z,101650.91
2022-10-25T18:31:26.782Z,101643.06
2022-10-25T18:33:58.820Z,101649.97
2022-10-25T18:36:25.503Z,101652.59
2022-10-25T18:38:51.912Z,101654.25
2022-10-25T18:41:23.598Z,101654.25
2022-10-25T18:43:50.379Z,101655.09
2022-10-25T18:46:17.314Z,101656.75
2022-10-25T18:48:45.199Z,101655.09
2022-10-25T18:51:13.573Z,101661.03
2022-10-25T18:53:40.281Z,101651.53
2022-10-25T18:56:16.973Z,101653.19
2022-10-25T18:58:46.576Z,101659.28
2022-10-25T19:01:22.113Z,101655.81
2022-10-25T19:03:48.585Z,101656.69
2022-10-25T19:06:14.889Z,101653.09
2022-10-25T19:08:41.404Z,101647.03
2022-10-25T19:11:12.951Z,101648.72
2022-10-25T19:13:40.468Z,101651.34
2022-10-25T19:16:07.130Z,101645.16
2022-10-25T19:18:34.565Z,101647.78
2022-10-25T19:21:12.911Z,101639.94
2022-10-25T19:23:41.478Z,101633.78
2022-10-25T19:26:09.723Z,101630.22
2022-10-25T19:28:36.473Z,101634.38
2022-10-25T19:31:11.340Z,101616.09
2022-10-25T19:33:37.787Z,101628.34
2022-10-25T19:36:09.936Z,101628.22
2022-10-25T19:38:37.410Z,101629.09
2022-10-25T19:41:05.947Z,101621.25
2022-10-25T19:43:32.840Z,101625.63
2022-10-25T19:46:01.434Z,101622.91
2022-10-25T19:48:30.690Z,101613.41
2022-10-25T19:51:03.121Z,101617.66
2022-10-25T19:53:29.762Z,101613.19
2022-10-25T19:55:59.860Z,101619.25
2022-10-25T19:58:26.569Z,101614.84
2022-10-25T20:01:17.273Z,101619.03
2022-10-25T20:03:45.443Z,101616.41
2022-10-25T20:06:20.248Z,101622.47
2022-10-25T20:08:49.887Z,101613.91
2022-10-25T20:11:17.569Z,101619.03
2022-10-25T20:13:44.756Z,101605.97
2022-10-25T20:16:13.654Z,101615.59
2022-10-25T20:18:41.375Z,101606.78
2022-10-25T20:21:16.181Z,101603.34
2022-10-25T20:23:49.117Z,101605.13
2022-10-25T20:26:18.034Z,101608.69
2022-10-25T20:28:45.360Z,101606.19
2022-10-25T20:31:12.670Z,101598.44
2022-10-25T20:33:40.222Z,101596.56
2022-10-25T20:36:08.811Z,101600.03
2022-10-25T20:38:36.337Z,101601.78
2022-10-25T20:41:05.328Z,101599.28
2022-10-25T20:43:32.626Z,101598.44
2022-10-25T20:45:59.539Z,101609.00
2022-10-25T20:48:25.888Z,101608.19
2022-10-25T20:50:53.170Z,101614.34
2022-10-25T20:53:21.250Z,101609.09
2022-10-25T20:55:48.733Z,101607.44
2022-10-25T20:58:16.748Z,101609.22
2022-10-25T21:00:43.828Z,101611.94
2022-10-25T21:03:10.399Z,101612.75
2022-10-25T21:05:42.723Z,101605.97
2022-10-25T21:08:10.520Z,101599.91
2022-10-25T21:10:37.184Z,101603.44
2022-10-25T21:13:03.898Z,101607.84
2022-10-25T21:15:30.250Z,101607.03
2022-10-25T21:17:56.580Z,101599.19
2022-10-25T21:20:22.881Z,101603.56
2022-10-25T21:22:49.211Z,101606.19
2022-10-25T21:25:15.842Z,101608.78
2022-10-25T21:27:42.435Z,101607.97
2022-10-25T21:30:09.591Z,101599.38
2022-10-25T21:32:35.931Z,101606.28
2022-10-25T21:35:02.236Z,101594.16
2022-10-25T21:37:28.554Z,101591.53
2022-10-25T21:39:54.849Z,101592.50
2022-10-25T21:42:21.148Z,101586.41
2022-10-25T21:44:47.473Z,101587.38
2022-10-25T21:47:14.143Z,101595.22
2022-10-25T21:49:40.452Z,101587.38
2022-10-25T21:52:06.782Z,101594.34
2022-10-25T21:54:33.092Z,101594.34
2022-10-25T21:56:59.404Z,101590.94
2022-10-25T21:59:26.117Z,101590.94
2022-10-25T22:01:52.589Z,101584.88
2022-10-25T22:04:18.994Z,101585.69
2022-10-25T22:06:45.600Z,101581.41
2022-10-25T22:09:11.928Z,101572.75
2022-10-25T22:11:39.276Z,101581.41
2022-10-25T22:14:09.886Z,101591.84
2022-10-25T22:16:36.526Z,101583.19
2022-10-25T22:19:05.953Z,101577.16
2022-10-25T22:21:37.934Z,101578.06
2022-10-25T22:24:06.519Z,101580.69
2022-10-25T22:26:32.824Z,101574.59
2022-10-25T22:28:59.679Z,101575.47
2022-10-25T22:31:28.759Z,101565.13
2022-10-25T22:34:00.561Z,101581.63
2022-10-25T22:36:29.975Z,101579.00
2022-10-25T22:38:59.251Z,101580.78
2022-10-25T22:41:27.294Z,101572.09
2022-10-25T22:43:54.100Z,101564.25
2022-10-25T22:46:25.953Z,101566.06
2022-10-25T22:48:54.037Z,101559.16
2022-10-25T22:51:21.931Z,101559.16
2022-10-25T22:53:48.304Z,101569.59
2022-10-25T22:56:15.740Z,101563.44
2022-10-25T22:58:47.372Z,101569.69
2022-10-25T23:01:17.189Z,101567.09
2022-10-25T23:03:45.912Z,101561.75
2022-10-25T23:06:17.571Z,101557.50
2022-10-25T23:08:44.330Z,101572.31
2022-10-25T23:11:18.149Z,101561.88
2022-10-25T23:13:45.358Z,101560.09
2022-10-25T23:16:13.423Z,101565.44
2022-10-25T23:18:40.335Z,101568.06
2022-10-25T23:21:09.690Z,101559.31
2022-10-25T23:23:38.695Z,101557.69
2022-10-25T23:28:34.387Z,101567.16
2022-10-25T23:31:09.213Z,101562.03
2022-10-25T23:33:36.189Z,101557.69
2022-10-25T23:36:05.392Z,101567.16
2022-10-25T23:38:31.995Z,101569.06
2022-10-25T23:40:58.315Z,101566.44
2022-10-25T23:43:24.668Z,101562.16
2022-10-25T23:45:51.084Z,101563.84
2022-10-25T23:48:17.411Z,101558.72
2022-10-25T23:50:43.947Z,101547.41
2022-10-25T23:53:10.348Z,101543.03
2022-10-25T23:55:38.600Z,101543.97
2022-10-25T23:58:05.108Z,101543.03
